sensor_id;sensor_type;location;lat;lon;timestamp;temperature;humidity
37276;DHT22;23166;51.150;21.620;2023-02-01T00:00:47;1.20;99.90
37276;DHT22;23166;51.150;21.620;2023-02-01T00:03:27;1.30;99.90
37276;DHT22;23166;51.150;21.620;2023-02-01T00:05:54;1.30;99.90
37276;DHT22;23166;51.150;21.620;2023-02-01T00:08:22;1.30;99.90
37276;DHT22;23166;51.150;21.620;2023-02-01T00:11:04;1.30;99.90
37276;DHT22;23166;51.150;21.620;2023-02-01T00:13:48;1.40;99.90
37276;DHT22;23166;51.150;21.620;2023-02-01T00:16:20;1.40;99.90
37276;DHT22;23166;51.150;21.620;2023-02-01T00:32:03;1.50;99.90
37276;DHT22;23166;51.150;21.620;2023-02-01T00:34:31;1.60;99.90
37276;DHT22;23166;51.150;21.620;2023-02-01T00:37:11;1.70;99.90
37276;DHT22;23166;51.150;21.620;2023-02-01T00:39:38;1.70;99.90
37276;DHT22;23166;51.150;21.620;2023-02-01T00:42:05;1.70;99.90
37276;DHT22;23166;51.150;21.620;2023-02-01T00:44:32;1.80;99.90
37276;DHT22;23166;51.150;21.620;2023-02-01T00:47:02;1.80;99.90
37276;DHT22;23166;51.150;21.620;2023-02-01T00:49:29;1.80;99.90
37276;DHT22;23166;51.150;21.620;2023-02-01T00:51:56;1.80;99.90
37276;DHT22;23166;51.150;21.620;2023-02-01T00:54:23;1.80;99.90
37276;DHT22;23166;51.150;21.620;2023-02-01T00:56:49;1.80;99.90
37276;DHT22;23166;51.150;21.620;2023-02-01T00:59:16;1.80;99.90
37276;DHT22;23166;51.150;21.620;2023-02-01T01:01:43;1.80;99.90
37276;DHT22;23166;51.150;21.620;2023-02-01T01:04:10;1.80;99.90
37276;DHT22;23166;51.150;21.620;2023-02-01T01:06:37;1.80;99.90
37276;DHT22;23166;51.150;21.620;2023-02-01T01:09:05;1.90;99.90
37276;DHT22;23166;51.150;21.620;2023-02-01T01:11:47;1.90;99.90
37276;DHT22;23166;51.150;21.620;2023-02-01T01:14:14;1.90;99.90
37276;DHT22;23166;51.150;21.620;2023-02-01T01:16:41;1.90;99.90
37276;DHT22;23166;51.150;21.620;2023-02-01T01:19:22;1.90;99.90
37276;DHT22;23166;51.150;21.620;2023-02-01T01:22:03;1.90;99.90
37276;DHT22;23166;51.150;21.620;2023-02-01T01:24:30;1.90;99.90
37276;DHT22;23166;51.150;21.620;2023-02-01T01:26:57;1.90;99.90
37276;DHT22;23166;51.150;21.620;2023-02-01T01:43:15;2.00;99.90
37276;DHT22;23166;51.150;21.620;2023-02-01T01:45:48;1.90;99.90
37276;DHT22;23166;51.150;21.620;2023-02-01T01:48:27;1.90;99.90
37276;DHT22;23166;51.150;21.620;2023-02-01T01:51:00;1.80;99.90
37276;DHT22;23166;51.150;21.620;2023-02-01T01:53:47;1.80;99.90
37276;DHT22;23166;51.150;21.620;2023-02-01T01:56:35;1.80;99.90
37276;DHT22;23166;51.150;21.620;2023-02-01T01:59:01;1.90;99.90
37276;DHT22;23166;51.150;21.620;2023-02-01T02:01:31;1.80;99.90
37276;DHT22;23166;51.150;21.620;2023-02-01T02:03:57;1.80;99.90
37276;DHT22;23166;51.150;21.620;2023-02-01T02:09:14;1.80;99.90
37276;DHT22;23166;51.150;21.620;2023-02-01T02:11:43;1.80;99.90
37276;DHT22;23166;51.150;21.620;2023-02-01T02:14:10;1.90;99.90
37276;DHT22;23166;51.150;21.620;2023-02-01T02:25:33;1.90;99.90
37276;DHT22;23166;51.150;21.620;2023-02-01T02:31:26;1.90;99.90
37276;DHT22;23166;51.150;21.620;2023-02-01T02:39:41;2.00;99.90
37276;DHT22;23166;51.150;21.620;2023-02-01T02:45:41;2.10;99.90
37276;DHT22;23166;51.150;21.620;2023-02-01T02:48:34;2.00;99.90
37276;DHT22;23166;51.150;21.620;2023-02-01T02:51:09;2.00;99.90
37276;DHT22;23166;51.150;21.620;2023-02-01T02:54:21;2.00;99.90
37276;DHT22;23166;51.150;21.620;2023-02-01T02:57:09;2.00;99.90
37276;DHT22;23166;51.150;21.620;2023-02-01T03:00:00;2.10;99.90
37276;DHT22;23166;51.150;21.620;2023-02-01T03:02:47;2.10;99.90
37276;DHT22;23166;51.150;21.620;2023-02-01T03:05:43;2.10;99.90
37276;DHT22;23166;51.150;21.620;2023-02-01T03:08:15;2.10;99.90
37276;DHT22;23166;51.150;21.620;2023-02-01T03:13:36;2.10;99.90
37276;DHT22;23166;51.150;21.620;2023-02-01T03:18:58;2.20;99.90
37276;DHT22;23166;51.150;21.620;2023-02-01T03:21:39;2.20;99.90
37276;DHT22;23166;51.150;21.620;2023-02-01T03:24:15;2.20;99.90
37276;DHT22;23166;51.150;21.620;2023-02-01T03:26:55;2.20;99.90
37276;DHT22;23166;51.150;21.620;2023-02-01T03:29:26;2.20;99.90
37276;DHT22;23166;51.150;21.620;2023-02-01T03:31:56;2.20;99.90
37276;DHT22;23166;51.150;21.620;2023-02-01T03:34:23;2.20;99.90
37276;DHT22;23166;51.150;21.620;2023-02-01T03:36:50;2.20;99.90
37276;DHT22;23166;51.150;21.620;2023-02-01T03:42:21;2.20;99.90
37276;DHT22;23166;51.150;21.620;2023-02-01T03:44:54;2.20;99.90
37276;DHT22;23166;51.150;21.620;2023-02-01T03:47:23;2.20;99.90
37276;DHT22;23166;51.150;21.620;2023-02-01T03:49:54;2.20;99.90
37276;DHT22;23166;51.150;21.620;2023-02-01T03:52:28;2.30;99.90
37276;DHT22;23166;51.150;21.620;2023-02-01T03:54:59;2.20;99.90
37276;DHT22;23166;51.150;21.620;2023-02-01T03:57:29;2.20;99.90
37276;DHT22;23166;51.150;21.620;2023-02-01T04:00:04;2.30;99.90
37276;DHT22;23166;51.150;21.620;2023-02-01T04:02:35;2.20;99.90
37276;DHT22;23166;51.150;21.620;2023-02-01T04:05:02;2.20;99.90
37276;DHT22;23166;51.150;21.620;2023-02-01T04:07:28;2.10;99.90
37276;DHT22;23166;51.150;21.620;2023-02-01T04:09:54;2.10;99.90
37276;DHT22;23166;51.150;21.620;2023-02-01T04:12:21;2.00;99.90
37276;DHT22;23166;51.150;21.620;2023-02-01T04:14:47;2.00;99.90
37276;DHT22;23166;51.150;21.620;2023-02-01T04:17:13;2.00;99.90
37276;DHT22;23166;51.150;21.620;2023-02-01T04:19:54;2.00;99.90
37276;DHT22;23166;51.150;21.620;2023-02-01T04:22:20;2.00;99.90
37276;DHT22;23166;51.150;21.620;2023-02-01T04:24:46;2.00;99.90
37276;DHT22;23166;51.150;21.620;2023-02-01T04:27:12;2.00;99.90
37276;DHT22;23166;51.150;21.620;2023-02-01T04:29:39;2.00;99.90
37276;DHT22;23166;51.150;21.620;2023-02-01T04:32:05;2.10;99.90
37276;DHT22;23166;51.150;21.620;2023-02-01T04:34:31;2.10;99.90
37276;DHT22;23166;51.150;21.620;2023-02-01T04:36:57;2.10;99.90
37276;DHT22;23166;51.150;21.620;2023-02-01T04:39:24;2.20;99.90
37276;DHT22;23166;51.150;21.620;2023-02-01T04:41:50;2.20;99.90
37276;DHT22;23166;51.150;21.620;2023-02-01T04:44:17;2.20;99.90
37276;DHT22;23166;51.150;21.620;2023-02-01T04:46:44;2.20;99.90
37276;DHT22;23166;51.150;21.620;2023-02-01T04:49:12;2.20;99.90
37276;DHT22;23166;51.150;21.620;2023-02-01T04:51:40;2.30;99.90
37276;DHT22;23166;51.150;21.620;2023-02-01T04:54:07;2.20;99.90
37276;DHT22;23166;51.150;21.620;2023-02-01T04:56:34;2.20;99.90
37276;DHT22;23166;51.150;21.620;2023-02-01T04:59:03;2.20;99.90
37276;DHT22;23166;51.150;21.620;2023-02-01T05:01:30;2.20;99.90
37276;DHT22;23166;51.150;21.620;2023-02-01T05:03:57;2.20;99.90
37276;DHT22;23166;51.150;21.620;2023-02-01T05:06:23;2.20;99.90
37276;DHT22;23166;51.150;21.620;2023-02-01T05:08:50;2.30;99.90
37276;DHT22;23166;51.150;21.620;2023-02-01T05:11:16;2.20;99.90
37276;DHT22;23166;51.150;21.620;2023-02-01T05:14:01;2.20;99.90
37276;DHT22;23166;51.150;21.620;2023-02-01T05:16:27;2.10;99.90
37276;DHT22;23166;51.150;21.620;2023-02-01T05:18:53;2.00;99.90
37276;DHT22;23166;51.150;21.620;2023-02-01T05:21:19;2.00;99.90
37276;DHT22;23166;51.150;21.620;2023-02-01T05:23:46;2.00;99.90
37276;DHT22;23166;51.150;21.620;2023-02-01T05:26:31;1.90;99.90
37276;DHT22;23166;51.150;21.620;2023-02-01T05:28:57;2.00;99.90
37276;DHT22;23166;51.150;21.620;2023-02-01T05:31:24;2.00;99.90
37276;DHT22;23166;51.150;21.620;2023-02-01T05:33:50;2.00;99.90
37276;DHT22;23166;51.150;21.620;2023-02-01T05:36:16;2.00;99.90
37276;DHT22;23166;51.150;21.620;2023-02-01T05:38:43;2.10;99.90
37276;DHT22;23166;51.150;21.620;2023-02-01T05:41:09;2.10;99.90
37276;DHT22;23166;51.150;21.620;2023-02-01T05:43:36;2.10;99.90
37276;DHT22;23166;51.150;21.620;2023-02-01T05:46:02;2.10;99.90
37276;DHT22;23166;51.150;21.620;2023-02-01T05:48:28;2.10;99.90
37276;DHT22;23166;51.150;21.620;2023-02-01T05:50:55;2.10;99.90
37276;DHT22;23166;51.150;21.620;2023-02-01T05:53:21;2.10;99.90
37276;DHT22;23166;51.150;21.620;2023-02-01T05:55:47;2.10;99.90
37276;DHT22;23166;51.150;21.620;2023-02-01T05:58:14;2.10;99.90
37276;DHT22;23166;51.150;21.620;2023-02-01T06:00:40;2.00;99.90
37276;DHT22;23166;51.150;21.620;2023-02-01T06:03:06;2.00;99.90
37276;DHT22;23166;51.150;21.620;2023-02-01T06:05:33;2.00;99.90
37276;DHT22;23166;51.150;21.620;2023-02-01T06:07:59;1.90;99.90
37276;DHT22;23166;51.150;21.620;2023-02-01T06:10:26;1.90;99.90
37276;DHT22;23166;51.150;21.620;2023-02-01T06:12:52;2.00;99.90
37276;DHT22;23166;51.150;21.620;2023-02-01T06:15:18;1.90;99.90
37276;DHT22;23166;51.150;21.620;2023-02-01T06:17:45;2.00;99.90
37276;DHT22;23166;51.150;21.620;2023-02-01T06:20:12;2.00;99.90
37276;DHT22;23166;51.150;21.620;2023-02-01T06:22:39;2.00;99.90
37276;DHT22;23166;51.150;21.620;2023-02-01T06:25:06;2.00;99.90
37276;DHT22;23166;51.150;21.620;2023-02-01T06:27:34;2.10;99.90
37276;DHT22;23166;51.150;21.620;2023-02-01T06:30:00;2.10;99.90
37276;DHT22;23166;51.150;21.620;2023-02-01T06:32:26;2.10;99.90
37276;DHT22;23166;51.150;21.620;2023-02-01T06:34:52;2.20;99.90
37276;DHT22;23166;51.150;21.620;2023-02-01T06:37:19;2.20;99.90
37276;DHT22;23166;51.150;21.620;2023-02-01T06:39:45;2.40;99.90
37276;DHT22;23166;51.150;21.620;2023-02-01T06:42:11;2.40;99.90
37276;DHT22;23166;51.150;21.620;2023-02-01T06:44:38;2.40;99.90
37276;DHT22;23166;51.150;21.620;2023-02-01T06:47:04;2.40;99.90
37276;DHT22;23166;51.150;21.620;2023-02-01T06:49:30;2.40;99.90
37276;DHT22;23166;51.150;21.620;2023-02-01T06:51:56;2.40;99.90
37276;DHT22;23166;51.150;21.620;2023-02-01T06:54:26;2.40;99.90
37276;DHT22;23166;51.150;21.620;2023-02-01T06:56:53;2.40;99.90
37276;DHT22;23166;51.150;21.620;2023-02-01T06:59:19;2.50;99.90
37276;DHT22;23166;51.150;21.620;2023-02-01T07:01:45;2.50;99.90
37276;DHT22;23166;51.150;21.620;2023-02-01T07:04:12;2.50;99.90
37276;DHT22;23166;51.150;21.620;2023-02-01T07:06:39;2.60;99.90
37276;DHT22;23166;51.150;21.620;2023-02-01T07:09:06;2.60;99.90
37276;DHT22;23166;51.150;21.620;2023-02-01T07:11:33;2.60;99.90
37276;DHT22;23166;51.150;21.620;2023-02-01T07:13:59;2.60;99.90
37276;DHT22;23166;51.150;21.620;2023-02-01T07:16:25;2.70;98.20
37276;DHT22;23166;51.150;21.620;2023-02-01T07:18:52;2.70;99.90
37276;DHT22;23166;51.150;21.620;2023-02-01T07:21:19;2.70;99.90
37276;DHT22;23166;51.150;21.620;2023-02-01T07:23:46;2.80;99.30
37276;DHT22;23166;51.150;21.620;2023-02-01T07:26:13;2.80;99.90
37276;DHT22;23166;51.150;21.620;2023-02-01T07:28:40;2.90;97.50
37276;DHT22;23166;51.150;21.620;2023-02-01T07:31:08;2.90;99.90
37276;DHT22;23166;51.150;21.620;2023-02-01T07:33:36;3.00;98.20
37276;DHT22;23166;51.150;21.620;2023-02-01T07:36:03;3.00;93.90
37276;DHT22;23166;51.150;21.620;2023-02-01T07:38:32;3.10;95.90
37276;DHT22;23166;51.150;21.620;2023-02-01T07:40:59;3.10;92.60
37276;DHT22;23166;51.150;21.620;2023-02-01T07:43:29;3.10;94.10
37276;DHT22;23166;51.150;21.620;2023-02-01T07:45:56;3.20;84.80
37276;DHT22;23166;51.150;21.620;2023-02-01T07:48:23;3.20;91.80
37276;DHT22;23166;51.150;21.620;2023-02-01T07:53:36;3.20;92.80
37276;DHT22;23166;51.150;21.620;2023-02-01T07:56:03;3.30;92.10
37276;DHT22;23166;51.150;21.620;2023-02-01T07:58:36;3.40;93.30
37276;DHT22;23166;51.150;21.620;2023-02-01T08:01:02;3.30;96.70
37276;DHT22;23166;51.150;21.620;2023-02-01T08:03:48;3.30;95.20
37276;DHT22;23166;51.150;21.620;2023-02-01T08:06:16;3.40;93.40
37276;DHT22;23166;51.150;21.620;2023-02-01T08:08:57;3.40;94.40
37276;DHT22;23166;51.150;21.620;2023-02-01T08:11:38;3.50;93.30
37276;DHT22;23166;51.150;21.620;2023-02-01T08:14:05;3.40;93.50
37276;DHT22;23166;51.150;21.620;2023-02-01T08:16:32;3.50;94.10
37276;DHT22;23166;51.150;21.620;2023-02-01T08:19:01;3.50;94.90
37276;DHT22;23166;51.150;21.620;2023-02-01T08:21:27;3.50;88.40
37276;DHT22;23166;51.150;21.620;2023-02-01T08:24:16;3.60;93.70
37276;DHT22;23166;51.150;21.620;2023-02-01T08:26:43;3.70;94.20
37276;DHT22;23166;51.150;21.620;2023-02-01T08:29:09;3.80;92.00
37276;DHT22;23166;51.150;21.620;2023-02-01T08:31:38;3.80;94.10
37276;DHT22;23166;51.150;21.620;2023-02-01T08:34:07;3.90;92.50
37276;DHT22;23166;51.150;21.620;2023-02-01T08:36:35;3.90;87.50
37276;DHT22;23166;51.150;21.620;2023-02-01T08:39:15;4.00;92.50
37276;DHT22;23166;51.150;21.620;2023-02-01T08:41:42;4.00;89.40
37276;DHT22;23166;51.150;21.620;2023-02-01T08:44:28;4.00;82.60
37276;DHT22;23166;51.150;21.620;2023-02-01T08:46:55;4.10;85.50
37276;DHT22;23166;51.150;21.620;2023-02-01T08:49:21;4.10;58.50
37276;DHT22;23166;51.150;21.620;2023-02-01T08:51:47;4.10;85.60
37276;DHT22;23166;51.150;21.620;2023-02-01T08:54:13;4.10;84.60
37276;DHT22;23166;51.150;21.620;2023-02-01T08:56:40;4.00;84.90
37276;DHT22;23166;51.150;21.620;2023-02-01T08:59:06;4.10;59.20
37276;DHT22;23166;51.150;21.620;2023-02-01T09:01:32;4.10;76.70
37276;DHT22;23166;51.150;21.620;2023-02-01T09:03:59;4.10;75.00
37276;DHT22;23166;51.150;21.620;2023-02-01T09:06:25;4.00;89.50
37276;DHT22;23166;51.150;21.620;2023-02-01T09:08:51;4.00;83.00
37276;DHT22;23166;51.150;21.620;2023-02-01T09:11:18;4.10;72.80
37276;DHT22;23166;51.150;21.620;2023-02-01T09:13:48;4.10;80.10
37276;DHT22;23166;51.150;21.620;2023-02-01T09:16:14;4.20;69.50
37276;DHT22;23166;51.150;21.620;2023-02-01T09:18:40;4.30;80.40
37276;DHT22;23166;51.150;21.620;2023-02-01T09:21:07;4.40;77.40
37276;DHT22;23166;51.150;21.620;2023-02-01T09:23:34;4.60;73.80
37276;DHT22;23166;51.150;21.620;2023-02-01T09:26:01;4.70;62.00
37276;DHT22;23166;51.150;21.620;2023-02-01T09:28:29;4.70;68.00
37276;DHT22;23166;51.150;21.620;2023-02-01T09:30:59;4.60;51.40
37276;DHT22;23166;51.150;21.620;2023-02-01T09:33:27;4.50;53.80
37276;DHT22;23166;51.150;21.620;2023-02-01T09:35:58;4.50;65.80
37276;DHT22;23166;51.150;21.620;2023-02-01T09:38:25;4.50;40.40
37276;DHT22;23166;51.150;21.620;2023-02-01T09:40:54;4.60;63.50
37276;DHT22;23166;51.150;21.620;2023-02-01T09:43:24;4.60;44.40
37276;DHT22;23166;51.150;21.620;2023-02-01T09:46:29;4.50;59.00
37276;DHT22;23166;51.150;21.620;2023-02-01T09:48:59;4.30;63.40
37276;DHT22;23166;51.150;21.620;2023-02-01T09:51:30;4.30;77.90
37276;DHT22;23166;51.150;21.620;2023-02-01T09:59:37;4.10;62.90
37276;DHT22;23166;51.150;21.620;2023-02-01T10:04:57;4.10;79.90
37276;DHT22;23166;51.150;21.620;2023-02-01T10:10:47;4.20;79.10
37276;DHT22;23166;51.150;21.620;2023-02-01T10:16:12;4.20;88.50
37276;DHT22;23166;51.150;21.620;2023-02-01T10:18:56;4.20;88.40
37276;DHT22;23166;51.150;21.620;2023-02-01T10:26:48;4.70;86.10
37276;DHT22;23166;51.150;21.620;2023-02-01T10:29:43;4.90;46.30
37276;DHT22;23166;51.150;21.620;2023-02-01T10:32:31;5.00;60.70
37276;DHT22;23166;51.150;21.620;2023-02-01T10:35:14;5.00;62.70
37276;DHT22;23166;51.150;21.620;2023-02-01T10:37:43;5.10;59.00
37276;DHT22;23166;51.150;21.620;2023-02-01T10:40:26;5.20;60.40
37276;DHT22;23166;51.150;21.620;2023-02-01T10:42:54;5.10;47.00
37276;DHT22;23166;51.150;21.620;2023-02-01T10:45:25;5.10;76.60
37276;DHT22;23166;51.150;21.620;2023-02-01T10:47:54;5.10;72.50
37276;DHT22;23166;51.150;21.620;2023-02-01T10:50:35;5.00;70.60
37276;DHT22;23166;51.150;21.620;2023-02-01T10:53:22;5.10;74.10
37276;DHT22;23166;51.150;21.620;2023-02-01T10:55:52;5.20;71.50
37276;DHT22;23166;51.150;21.620;2023-02-01T10:58:30;5.30;72.60
37276;DHT22;23166;51.150;21.620;2023-02-01T11:00:59;5.50;61.50
37276;DHT22;23166;51.150;21.620;2023-02-01T11:06:26;5.80;32.20
37276;DHT22;23166;51.150;21.620;2023-02-01T11:14:20;5.50;46.90
37276;DHT22;23166;51.150;21.620;2023-02-01T11:17:02;5.30;52.20
37276;DHT22;23166;51.150;21.620;2023-02-01T11:19:45;5.20;42.60
37276;DHT22;23166;51.150;21.620;2023-02-01T11:22:13;5.30;45.30
37276;DHT22;23166;51.150;21.620;2023-02-01T11:24:40;5.30;23.80
37276;DHT22;23166;51.150;21.620;2023-02-01T11:27:15;5.20;28.90
37276;DHT22;23166;51.150;21.620;2023-02-01T11:29:45;5.20;56.60
37276;DHT22;23166;51.150;21.620;2023-02-01T11:32:17;5.20;71.40
37276;DHT22;23166;51.150;21.620;2023-02-01T11:34:48;5.30;70.40
37276;DHT22;23166;51.150;21.620;2023-02-01T11:39:59;5.40;59.70
37276;DHT22;23166;51.150;21.620;2023-02-01T11:42:28;5.50;63.90
37276;DHT22;23166;51.150;21.620;2023-02-01T11:45:16;5.60;55.30
37276;DHT22;23166;51.150;21.620;2023-02-01T11:47:45;5.80;27.20
37276;DHT22;23166;51.150;21.620;2023-02-01T11:50:16;5.90;49.30
37276;DHT22;23166;51.150;21.620;2023-02-01T11:52:57;5.90;64.00
37276;DHT22;23166;51.150;21.620;2023-02-01T12:17:46;4.10;99.80
37276;DHT22;23166;51.150;21.620;2023-02-01T12:23:45;4.10;99.90
37276;DHT22;23166;51.150;21.620;2023-02-01T12:32:22;4.20;99.90
37276;DHT22;23166;51.150;21.620;2023-02-01T12:35:22;4.20;99.90
37276;DHT22;23166;51.150;21.620;2023-02-01T12:51:18;4.50;88.60
37276;DHT22;23166;51.150;21.620;2023-02-01T12:53:56;4.50;95.70
37276;DHT22;23166;51.150;21.620;2023-02-01T12:56:34;4.40;94.30
37276;DHT22;23166;51.150;21.620;2023-02-01T13:02:33;4.40;92.30
37276;DHT22;23166;51.150;21.620;2023-02-01T13:05:20;4.40;93.80
37276;DHT22;23166;51.150;21.620;2023-02-01T13:07:56;4.40;98.40
37276;DHT22;23166;51.150;21.620;2023-02-01T13:10:51;4.50;94.80
37276;DHT22;23166;51.150;21.620;2023-02-01T13:13:29;4.40;93.00
37276;DHT22;23166;51.150;21.620;2023-02-01T13:19:10;4.50;97.00
37276;DHT22;23166;51.150;21.620;2023-02-01T13:21:43;4.50;93.10
37276;DHT22;23166;51.150;21.620;2023-02-01T13:24:23;4.50;92.20
37276;DHT22;23166;51.150;21.620;2023-02-01T13:26:57;4.50;88.20
37276;DHT22;23166;51.150;21.620;2023-02-01T13:29:24;4.60;92.60
37276;DHT22;23166;51.150;21.620;2023-02-01T13:32:29;4.50;88.30
37276;DHT22;23166;51.150;21.620;2023-02-01T13:40:45;4.40;94.90
37276;DHT22;23166;51.150;21.620;2023-02-01T13:43:22;4.40;96.80
37276;DHT22;23166;51.150;21.620;2023-02-01T13:46:07;4.40;92.90
37276;DHT22;23166;51.150;21.620;2023-02-01T13:48:39;4.40;94.80
37276;DHT22;23166;51.150;21.620;2023-02-01T13:51:35;4.50;95.30
37276;DHT22;23166;51.150;21.620;2023-02-01T13:54:21;4.50;96.00
37276;DHT22;23166;51.150;21.620;2023-02-01T13:56:52;4.50;87.60
37276;DHT22;23166;51.150;21.620;2023-02-01T14:08:23;4.40;96.50
37276;DHT22;23166;51.150;21.620;2023-02-01T14:11:03;4.40;97.10
37276;DHT22;23166;51.150;21.620;2023-02-01T14:23:55;4.20;97.50
37276;DHT22;23166;51.150;21.620;2023-02-01T14:26:48;4.20;96.50
37276;DHT22;23166;51.150;21.620;2023-02-01T14:31:45;4.10;93.70
37276;DHT22;23166;51.150;21.620;2023-02-01T14:43:07;3.80;99.90
37276;DHT22;23166;51.150;21.620;2023-02-01T14:47:48;3.60;99.90
37276;DHT22;23166;51.150;21.620;2023-02-01T15:00:58;3.40;99.90
37276;DHT22;23166;51.150;21.620;2023-02-01T15:06:32;3.20;99.90
37276;DHT22;23166;51.150;21.620;2023-02-01T15:14:22;3.10;99.90
37276;DHT22;23166;51.150;21.620;2023-02-01T15:16:48;3.10;99.90
37276;DHT22;23166;51.150;21.620;2023-02-01T15:19:20;3.10;99.90
37276;DHT22;23166;51.150;21.620;2023-02-01T15:21:50;3.10;99.90
37276;DHT22;23166;51.150;21.620;2023-02-01T15:24:19;3.10;99.90
37276;DHT22;23166;51.150;21.620;2023-02-01T15:26:51;3.00;99.90
37276;DHT22;23166;51.150;21.620;2023-02-01T15:29:19;2.90;99.90
37276;DHT22;23166;51.150;21.620;2023-02-01T15:31:48;2.80;99.90
37276;DHT22;23166;51.150;21.620;2023-02-01T15:34:17;2.70;99.90
37276;DHT22;23166;51.150;21.620;2023-02-01T15:36:44;2.60;99.90
37276;DHT22;23166;51.150;21.620;2023-02-01T15:41:47;2.40;99.90
37276;DHT22;23166;51.150;21.620;2023-02-01T15:44:20;2.30;99.90
37276;DHT22;23166;51.150;21.620;2023-02-01T15:47:20;2.30;99.90
37276;DHT22;23166;51.150;21.620;2023-02-01T15:50:12;2.30;99.90
37276;DHT22;23166;51.150;21.620;2023-02-01T15:52:40;2.40;99.90
37276;DHT22;23166;51.150;21.620;2023-02-01T15:58:08;2.50;99.90
37276;DHT22;23166;51.150;21.620;2023-02-01T16:00:49;2.50;99.90
37276;DHT22;23166;51.150;21.620;2023-02-01T16:03:33;2.60;99.90
37276;DHT22;23166;51.150;21.620;2023-02-01T16:06:07;2.50;99.90
37276;DHT22;23166;51.150;21.620;2023-02-01T16:08:34;2.50;99.90
37276;DHT22;23166;51.150;21.620;2023-02-01T16:11:25;2.50;99.90
37276;DHT22;23166;51.150;21.620;2023-02-01T16:14:05;2.50;99.90
37276;DHT22;23166;51.150;21.620;2023-02-01T16:16:32;2.50;99.90
37276;DHT22;23166;51.150;21.620;2023-02-01T16:18:58;2.50;99.90
37276;DHT22;23166;51.150;21.620;2023-02-01T16:21:24;2.50;99.90
37276;DHT22;23166;51.150;21.620;2023-02-01T16:23:51;2.50;99.90
37276;DHT22;23166;51.150;21.620;2023-02-01T16:26:18;2.60;99.90
37276;DHT22;23166;51.150;21.620;2023-02-01T16:28:46;2.60;99.90
37276;DHT22;23166;51.150;21.620;2023-02-01T16:31:14;2.60;99.90
37276;DHT22;23166;51.150;21.620;2023-02-01T16:33:49;2.60;99.90
37276;DHT22;23166;51.150;21.620;2023-02-01T16:36:17;2.60;99.90
37276;DHT22;23166;51.150;21.620;2023-02-01T16:38:44;2.60;99.90
37276;DHT22;23166;51.150;21.620;2023-02-01T16:41:14;2.60;99.90
37276;DHT22;23166;51.150;21.620;2023-02-01T16:43:43;2.70;99.90
37276;DHT22;23166;51.150;21.620;2023-02-01T16:46:17;2.60;99.90
37276;DHT22;23166;51.150;21.620;2023-02-01T16:48:52;2.60;99.90
37276;DHT22;23166;51.150;21.620;2023-02-01T16:51:24;2.60;99.90
37276;DHT22;23166;51.150;21.620;2023-02-01T16:53:53;2.60;99.90
37276;DHT22;23166;51.150;21.620;2023-02-01T16:56:30;2.60;99.90
37276;DHT22;23166;51.150;21.620;2023-02-01T16:58:58;2.60;99.90
37276;DHT22;23166;51.150;21.620;2023-02-01T17:01:24;2.60;99.90
37276;DHT22;23166;51.150;21.620;2023-02-01T17:03:51;2.60;99.90
37276;DHT22;23166;51.150;21.620;2023-02-01T17:06:23;2.60;99.90
37276;DHT22;23166;51.150;21.620;2023-02-01T17:08:52;2.60;99.90
37276;DHT22;23166;51.150;21.620;2023-02-01T17:11:20;2.50;99.90
37276;DHT22;23166;51.150;21.620;2023-02-01T17:13:47;2.60;99.90
37276;DHT22;23166;51.150;21.620;2023-02-01T17:16:29;2.60;99.90
37276;DHT22;23166;51.150;21.620;2023-02-01T17:18:58;2.60;99.90
37276;DHT22;23166;51.150;21.620;2023-02-01T17:21:35;2.60;99.90
37276;DHT22;23166;51.150;21.620;2023-02-01T17:24:09;2.60;99.90
37276;DHT22;23166;51.150;21.620;2023-02-01T17:26:39;2.70;99.90
37276;DHT22;23166;51.150;21.620;2023-02-01T17:29:05;2.70;99.90
37276;DHT22;23166;51.150;21.620;2023-02-01T17:31:32;2.60;99.90
37276;DHT22;23166;51.150;21.620;2023-02-01T17:34:04;2.70;99.90
37276;DHT22;23166;51.150;21.620;2023-02-01T17:36:45;2.70;99.90
37276;DHT22;23166;51.150;21.620;2023-02-01T17:39:13;2.70;99.90
37276;DHT22;23166;51.150;21.620;2023-02-01T17:42:15;2.70;99.90
37276;DHT22;23166;51.150;21.620;2023-02-01T17:44:41;2.70;99.90
37276;DHT22;23166;51.150;21.620;2023-02-01T17:47:07;2.60;99.90
37276;DHT22;23166;51.150;21.620;2023-02-01T17:49:34;2.60;99.90
37276;DHT22;23166;51.150;21.620;2023-02-01T17:52:01;2.60;99.90
37276;DHT22;23166;51.150;21.620;2023-02-01T17:54:27;2.50;99.90
37276;DHT22;23166;51.150;21.620;2023-02-01T17:56:53;2.50;99.90
37276;DHT22;23166;51.150;21.620;2023-02-01T17:59:34;2.40;99.90
37276;DHT22;23166;51.150;21.620;2023-02-01T18:02:00;2.40;99.90
37276;DHT22;23166;51.150;21.620;2023-02-01T18:04:26;2.30;99.90
37276;DHT22;23166;51.150;21.620;2023-02-01T18:06:53;2.30;99.90
37276;DHT22;23166;51.150;21.620;2023-02-01T18:09:19;2.30;99.90
37276;DHT22;23166;51.150;21.620;2023-02-01T18:11:45;2.30;99.90
37276;DHT22;23166;51.150;21.620;2023-02-01T18:14:14;2.30;99.90
37276;DHT22;23166;51.150;21.620;2023-02-01T18:16:40;2.30;99.90
37276;DHT22;23166;51.150;21.620;2023-02-01T18:19:06;2.30;99.90
37276;DHT22;23166;51.150;21.620;2023-02-01T18:21:34;2.20;99.90
37276;DHT22;23166;51.150;21.620;2023-02-01T18:24:09;2.20;99.90
37276;DHT22;23166;51.150;21.620;2023-02-01T18:26:38;2.20;99.90
37276;DHT22;23166;51.150;21.620;2023-02-01T18:29:05;2.20;99.90
37276;DHT22;23166;51.150;21.620;2023-02-01T18:31:32;2.20;99.90
37276;DHT22;23166;51.150;21.620;2023-02-01T18:34:00;2.20;99.90
37276;DHT22;23166;51.150;21.620;2023-02-01T18:36:27;2.10;99.90
37276;DHT22;23166;51.150;21.620;2023-02-01T18:38:55;2.10;99.90
37276;DHT22;23166;51.150;21.620;2023-02-01T18:41:22;2.00;99.90
37276;DHT22;23166;51.150;21.620;2023-02-01T18:44:04;1.90;99.90
37276;DHT22;23166;51.150;21.620;2023-02-01T18:46:31;1.90;99.90
37276;DHT22;23166;51.150;21.620;2023-02-01T18:48:57;1.80;99.90
37276;DHT22;23166;51.150;21.620;2023-02-01T18:51:23;1.80;99.90
37276;DHT22;23166;51.150;21.620;2023-02-01T18:53:49;1.80;99.90
37276;DHT22;23166;51.150;21.620;2023-02-01T18:56:16;1.70;99.90
37276;DHT22;23166;51.150;21.620;2023-02-01T18:58:43;1.70;99.90
37276;DHT22;23166;51.150;21.620;2023-02-01T19:01:13;1.70;99.90
37276;DHT22;23166;51.150;21.620;2023-02-01T19:03:42;1.70;99.90
37276;DHT22;23166;51.150;21.620;2023-02-01T19:06:08;1.70;99.90
37276;DHT22;23166;51.150;21.620;2023-02-01T19:08:35;1.70;99.90
37276;DHT22;23166;51.150;21.620;2023-02-01T19:11:05;1.80;99.90
37276;DHT22;23166;51.150;21.620;2023-02-01T19:13:35;1.80;99.90
37276;DHT22;23166;51.150;21.620;2023-02-01T19:16:05;1.90;99.90
37276;DHT22;23166;51.150;21.620;2023-02-01T19:18:51;1.90;99.90
37276;DHT22;23166;51.150;21.620;2023-02-01T19:21:18;2.00;99.90
37276;DHT22;23166;51.150;21.620;2023-02-01T19:23:44;2.00;99.90